Terminal Aerodrome Forecast
Issued by NWS Cleveland, OH

Home | Current Version | Previous Version | Text Only | Print | Product List | Glossary Off
Versions: 1 2 3 4 5 6 7 8 9 10 11 12 13 14 15 16 17 18 19 20 21 22

325
FTUS41 KCLE 212323
TAFCAK
TAF
KCAK 212323Z 2200/2224 25011KT P6SM SCT050 BKN250
     FM220200 20006KT P6SM SCT040 BKN080
     FM221200 22006KT P6SM VCSH BKN040
     FM221600 25011KT P6SM BKN050=

USA.gov is the U.S. government's official web portal to all federal, state and local government web resources and services.